Airfield :
LOGIN :

Register | Disclaimer

   EN    FR    IT 

 










Legend :    VFR   Marginal VFR   IFR   Intensive IFR   Very Intensive IFR
Visi :
Ceiling :
>= 8 km
>= 3000ft
5 to 8 km
1000 to 3000 ft
1500m to 5 km
500 to 1000 ft
800 to 1500m
200 to 500 ft
< 800m
< 200 ft
Symbols :   Thunderstorms  Fog  Heavy snow  Heavy precipitations  Wind > 20 kt
SIGMETs :     Misc.  Thunderstorms  Icing  Turbulence  Mountain Waves  Volcanic Ashes







- Airport Elevation : 52 ft
- IATA code : RNN


EKRN - Bornholm Ronne

CURRENT METAR :
  • 180420Z AUTO 08002KT 9999 NCD 16/13 Q1021

EXPIRED METARs :
  • 180350Z AUTO 07002KT 9999 NCD 14/12 Q1021
  • 180320Z AUTO 06003KT 9999 NCD 13/12 Q1021
  • 180250Z AUTO 05005KT 5000 NCD 12/11 Q1021
  • 180220Z AUTO 05005KT 5000 NCD 12/11 Q1021
  • 180150Z AUTO 05004KT 9999 NCD 12/12 Q1021

TAF TAF EKRN
Valid from the 18 at 03:00 until the 18 at 12:00 UTC


180258Z 1803/1812 11008KT 9999 FEW030
No reported NOTAMs for that airfield.
1 SIGMET reported for the Sweden FIR (ESAA) :
 
Embedded thunderstorms
ESAA SIGMET 1 VALID 180430/180630 ESSA
ESAA SWEDEN FIR EMBD TS OBS AT 0420Z WI N5807 E01049 - N5824 E01133 - N5754 E01155 - N5737 E01114 - N5807 E01049 TOP FL370 MOV NE NC=



MET'MAP, your aeronautical weather chart ! - Copyright ORBIFLY December 2007 - Disclaimer

ORBIFLY MET'MAP TEAM :

Programming & Development : Alexandra Zaïnal
Concept & Development : Baudouin d'Aumeries
Co-Development & Prog : Marc-Olivier Méhu
Technical & hardware support : Manuel Goepfert

Contact : metmap@orbifly.com




SOURCES & CREDITS :

   NOAA